Terminal Aerodrome Forecast
Issued by NWS

Home | Current Version | Previous Version | Text Only | Print | Product List | Glossary On
Versions: 1 2 3 4 5 6 7 8 9 10 11 12 13 14 15 16
861
FTUS42 TJSJ 291749 AAA
TAFJBQ
TAF AMD
TJBQ 291749Z 2918/3018 08007KT P6SM VCTS SCT016CB BKN040 BKN050
      TEMPO 2918/2919 3/4SM +TSRA BKN006CB
     FM292330 10005KT P6SM VCSH SCT025
     FM301500 07013KT P6SM VCTS SCT030CB BKN050
      AMD NOT SKED 3002/3011=

USA.gov is the U.S. government's official web portal to all federal, state and local government web resources and services.